createdAt,value
2023-04-16T00:00:14.180Z,9.63
2023-04-16T00:01:14.119Z,9.67
2023-04-16T00:02:14.263Z,9.70
2023-04-16T00:03:14.281Z,9.71
2023-04-16T00:04:14.199Z,9.65
2023-04-16T00:05:14.168Z,9.71
2023-04-16T00:06:14.111Z,9.60
2023-04-16T00:07:14.096Z,9.59
2023-04-16T00:08:14.097Z,9.63
2023-04-16T00:09:14.170Z,9.71
2023-04-16T00:10:14.169Z,9.56
2023-04-16T00:11:14.292Z,9.55
2023-04-16T00:12:14.095Z,9.60
2023-04-16T00:13:14.068Z,9.56
2023-04-16T00:14:14.054Z,9.63
2023-04-16T00:15:14.047Z,9.58
2023-04-16T00:16:14.085Z,9.58
2023-04-16T00:17:14.076Z,9.65
2023-04-16T00:18:13.991Z,9.65
2023-04-16T00:19:14.055Z,9.58
2023-04-16T00:20:13.992Z,9.58
2023-04-16T00:21:14.027Z,9.56
2023-04-16T00:22:13.968Z,9.58
2023-04-16T00:23:14.036Z,9.60
2023-04-16T00:24:14.073Z,9.55
2023-04-16T00:25:13.977Z,9.63
2023-04-16T00:26:13.952Z,9.56
2023-04-16T00:27:14.051Z,9.58
2023-04-16T00:28:13.953Z,9.63
2023-04-16T00:29:14.005Z,9.62
2023-04-16T00:30:13.956Z,9.55
2023-04-16T00:31:13.983Z,9.55
2023-04-16T00:32:13.924Z,9.55
2023-04-16T00:33:13.907Z,9.59
2023-04-16T00:34:13.893Z,9.60
2023-04-16T00:35:13.952Z,9.55
2023-04-16T00:36:13.888Z,9.71
2023-04-16T00:37:13.911Z,9.65
2023-04-16T00:38:13.862Z,9.67
2023-04-16T00:39:13.893Z,9.58
2023-04-16T00:40:13.843Z,9.74
2023-04-16T00:41:13.901Z,9.65
2023-04-16T00:42:14.018Z,9.65
2023-04-16T00:43:13.911Z,9.63
2023-04-16T00:44:13.851Z,9.60
2023-04-16T00:45:13.792Z,9.70
2023-04-16T00:46:13.844Z,9.74
2023-04-16T00:47:13.924Z,9.75
2023-04-16T00:48:13.786Z,9.63
2023-04-16T00:49:13.806Z,9.75
2023-04-16T00:50:13.791Z,9.65
2023-04-16T00:51:13.772Z,9.75
2023-04-16T00:52:13.755Z,9.71
2023-04-16T00:53:13.784Z,9.71
2023-04-16T00:54:13.751Z,9.70
2023-04-16T00:55:13.784Z,9.75
2023-04-16T00:56:13.729Z,9.65
2023-04-16T00:57:13.703Z,9.71
2023-04-16T00:58:13.799Z,9.70
2023-04-16T00:59:13.784Z,9.73
2023-04-16T01:00:13.710Z,9.71
2023-04-16T01:01:13.896Z,9.71
2023-04-16T01:02:13.874Z,9.62
2023-04-16T01:03:13.813Z,9.70
2023-04-16T01:04:13.758Z,9.74
2023-04-16T01:05:14.025Z,9.63
2023-04-16T01:06:13.677Z,9.75
2023-04-16T01:07:13.661Z,9.71
2023-04-16T01:08:13.672Z,9.70
2023-04-16T01:09:13.690Z,9.63
2023-04-16T01:10:13.668Z,9.70
2023-04-16T01:11:53.866Z,9.68
2023-04-16T01:12:14.654Z,9.71
2023-04-16T01:13:13.625Z,9.63
2023-04-16T01:14:13.753Z,9.65
2023-04-16T01:15:13.623Z,9.56
2023-04-16T01:16:13.637Z,9.58
2023-04-16T01:17:13.754Z,9.53
2023-04-16T01:18:13.613Z,9.53
2023-04-16T01:19:13.586Z,9.45
2023-04-16T01:20:13.619Z,9.48
2023-04-16T01:21:13.567Z,9.49
2023-04-16T01:22:13.587Z,9.44
2023-04-16T01:23:13.590Z,9.45
2023-04-16T01:24:13.571Z,9.49
2023-04-16T01:25:13.593Z,9.44
2023-04-16T01:26:13.529Z,9.49
2023-04-16T01:27:13.538Z,9.48
2023-04-16T01:28:13.523Z,9.48
2023-04-16T01:29:13.551Z,9.44
2023-04-16T01:30:13.508Z,9.37
2023-04-16T01:31:13.533Z,9.42
2023-04-16T01:32:13.500Z,9.53
2023-04-16T01:33:13.505Z,9.52
2023-04-16T01:34:13.464Z,9.41
2023-04-16T01:35:13.514Z,9.40
2023-04-16T01:36:13.436Z,9.32
2023-04-16T01:37:13.458Z,9.34
2023-04-16T01:38:13.444Z,9.26
2023-04-16T01:39:13.440Z,9.32
2023-04-16T01:40:13.435Z,9.32
2023-04-16T01:41:13.548Z,9.41
2023-04-16T01:42:13.442Z,9.41
2023-04-16T01:43:13.431Z,9.41
2023-04-16T01:44:13.410Z,9.38
2023-04-16T01:45:13.405Z,9.35
2023-04-16T01:46:13.423Z,9.27
2023-04-16T01:47:13.421Z,9.20
2023-04-16T01:48:13.389Z,9.10
2023-04-16T01:49:13.371Z,8.98
2023-04-16T01:50:13.327Z,9.08
2023-04-16T01:51:13.376Z,9.01
2023-04-16T01:52:13.346Z,8.93
2023-04-16T01:53:13.370Z,9.13
2023-04-16T01:54:13.339Z,9.12
2023-04-16T01:55:13.288Z,9.13
2023-04-16T01:56:13.308Z,8.98
2023-04-16T01:57:13.317Z,9.03
2023-04-16T01:58:13.287Z,9.03
2023-04-16T01:59:13.353Z,9.19
2023-04-16T02:00:13.285Z,9.17
2023-04-16T02:01:13.324Z,9.17
2023-04-16T02:02:13.342Z,9.15
2023-04-16T02:03:13.444Z,9.23
2023-04-16T02:05:02.762Z,9.30
2023-04-16T02:05:14.714Z,9.26
2023-04-16T02:06:13.258Z,9.35
2023-04-16T02:07:53.903Z,9.35
2023-04-16T02:08:14.216Z,9.34
2023-04-16T02:09:13.235Z,9.37
2023-04-16T02:10:13.210Z,9.35
2023-04-16T02:11:13.249Z,9.35
2023-04-16T02:12:13.187Z,9.32
2023-04-16T02:13:13.193Z,9.41
2023-04-16T02:14:13.173Z,9.34
2023-04-16T02:15:13.188Z,9.41
2023-04-16T02:16:13.268Z,9.40
2023-04-16T02:17:13.226Z,9.40
2023-04-16T02:18:13.196Z,9.41
2023-04-16T02:19:13.151Z,9.34
2023-04-16T02:20:13.152Z,9.42
2023-04-16T02:21:13.125Z,9.40
2023-04-16T02:22:13.126Z,9.42
2023-04-16T02:23:13.148Z,9.49
2023-04-16T02:24:13.112Z,9.48
2023-04-16T02:25:13.127Z,9.35
2023-04-16T02:26:13.078Z,9.40
2023-04-16T02:27:13.098Z,9.40
2023-04-16T02:28:13.090Z,9.38
2023-04-16T02:29:13.104Z,9.35
2023-04-16T02:30:13.064Z,9.34
2023-04-16T02:31:13.063Z,9.30
2023-04-16T02:32:13.244Z,9.31
2023-04-16T02:33:13.040Z,9.34
2023-04-16T02:34:13.047Z,9.34
2023-04-16T02:35:13.082Z,9.27
2023-04-16T02:36:13.032Z,9.38
2023-04-16T02:37:13.022Z,9.34
2023-04-16T02:38:13.011Z,9.32
2023-04-16T02:39:13.024Z,9.22
2023-04-16T02:40:13.015Z,9.27
2023-04-16T02:41:13.045Z,9.27
2023-04-16T02:42:12.959Z,9.30
2023-04-16T02:43:12.980Z,9.26
2023-04-16T02:44:12.963Z,9.32
2023-04-16T02:45:12.964Z,9.42
2023-04-16T02:46:12.995Z,9.44
2023-04-16T02:47:12.991Z,9.42
2023-04-16T02:48:12.958Z,9.44
2023-04-16T02:49:12.927Z,9.56
2023-04-16T02:50:12.976Z,9.48
2023-04-16T02:51:12.899Z,9.53
2023-04-16T02:52:15.079Z,9.49
2023-04-16T02:53:12.947Z,9.49
2023-04-16T02:54:12.879Z,9.45
2023-04-16T02:55:12.887Z,9.40
2023-04-16T02:56:12.886Z,9.40
2023-04-16T02:57:12.878Z,9.35
2023-04-16T02:58:12.883Z,9.34
2023-04-16T02:59:12.883Z,9.37
2023-04-16T03:00:12.854Z,9.41
2023-04-16T03:01:12.868Z,9.53
2023-04-16T03:02:12.863Z,9.40
2023-04-16T03:03:12.924Z,9.44
2023-04-16T03:04:12.914Z,9.52
2023-04-16T03:05:12.975Z,9.48
2023-04-16T03:06:12.815Z,9.49
2023-04-16T03:07:12.813Z,9.41
2023-04-16T03:08:12.785Z,9.48
2023-04-16T03:09:12.809Z,9.34
2023-04-16T03:10:12.902Z,9.42
2023-04-16T03:11:13.083Z,9.50
2023-04-16T03:12:12.734Z,9.48
2023-04-16T03:13:12.745Z,9.45
2023-04-16T03:14:12.742Z,9.53
2023-04-16T03:15:12.739Z,9.45
2023-04-16T03:16:12.766Z,9.48
2023-04-16T03:17:12.774Z,9.38
2023-04-16T03:18:12.724Z,9.40
2023-04-16T03:19:12.707Z,9.45
2023-04-16T03:20:12.707Z,9.52
2023-04-16T03:21:12.719Z,9.49
2023-04-16T03:22:12.701Z,9.53
2023-04-16T03:23:12.766Z,9.52
2023-04-16T03:24:12.665Z,9.50
2023-04-16T03:25:12.707Z,9.53
2023-04-16T03:26:12.663Z,9.49
2023-04-16T03:27:12.643Z,9.45
2023-04-16T03:28:12.651Z,9.41
2023-04-16T03:29:12.690Z,9.49
2023-04-16T03:30:12.632Z,9.50
2023-04-16T03:31:12.702Z,9.41
2023-04-16T03:32:12.627Z,9.48
2023-04-16T03:33:12.612Z,9.48
2023-04-16T03:34:12.626Z,9.50
2023-04-16T03:35:12.655Z,9.42
2023-04-16T03:36:12.602Z,9.55
2023-04-16T03:37:12.578Z,9.52
2023-04-16T03:38:12.591Z,9.49
2023-04-16T03:39:12.586Z,9.55
2023-04-16T03:40:12.569Z,9.45
2023-04-16T03:41:12.610Z,9.58
2023-04-16T03:42:12.573Z,9.50
2023-04-16T03:43:12.545Z,9.56
2023-04-16T03:44:12.534Z,9.50
2023-04-16T03:45:12.511Z,9.58
2023-04-16T03:46:12.548Z,9.52
2023-04-16T03:47:12.549Z,9.53
2023-04-16T03:48:12.520Z,9.50
2023-04-16T03:49:12.505Z,9.50
2023-04-16T03:50:12.461Z,9.52
2023-04-16T03:51:12.485Z,9.55
2023-04-16T03:52:12.446Z,9.53
2023-04-16T03:53:12.502Z,9.53
2023-04-16T03:54:12.450Z,9.59
2023-04-16T03:55:12.465Z,9.60
2023-04-16T03:56:12.438Z,9.56
2023-04-16T03:57:12.446Z,9.53
2023-04-16T03:58:12.447Z,9.58
2023-04-16T03:59:12.493Z,9.52
2023-04-16T04:00:12.390Z,9.52
2023-04-16T04:01:12.440Z,9.58
2023-04-16T04:02:12.534Z,9.48
2023-04-16T04:03:12.611Z,9.53
2023-04-16T04:04:12.483Z,9.55
2023-04-16T04:05:12.408Z,9.59
2023-04-16T04:06:12.388Z,9.53
2023-04-16T04:07:12.349Z,9.52
2023-04-16T04:08:12.350Z,9.48
2023-04-16T04:09:12.355Z,9.55
2023-04-16T04:10:12.345Z,9.49
2023-04-16T04:11:12.554Z,9.58
2023-04-16T04:12:12.319Z,9.38
2023-04-16T04:13:12.329Z,9.44
2023-04-16T04:14:12.314Z,9.49
2023-04-16T04:15:12.302Z,9.48
2023-04-16T04:16:12.317Z,9.56
2023-04-16T04:17:12.321Z,9.52
2023-04-16T04:18:12.286Z,9.49
2023-04-16T04:19:12.289Z,9.48
2023-04-16T04:20:12.273Z,9.38
2023-04-16T04:21:12.346Z,9.44
2023-04-16T04:22:33.303Z,9.45
2023-04-16T04:23:12.252Z,9.41
2023-04-16T04:24:12.267Z,9.49
2023-04-16T04:25:12.225Z,9.41
2023-04-16T04:26:12.263Z,9.44
2023-04-16T04:27:12.231Z,9.42
2023-04-16T04:28:12.268Z,9.48
2023-04-16T04:29:12.328Z,9.50
2023-04-16T04:30:12.195Z,9.44
2023-04-16T04:31:12.232Z,9.38
2023-04-16T04:32:12.209Z,9.40
2023-04-16T04:33:12.192Z,9.42
2023-04-16T04:34:12.187Z,9.38
2023-04-16T04:35:12.154Z,9.41
2023-04-16T04:36:12.173Z,9.42
2023-04-16T04:37:33.154Z,9.49
2023-04-16T04:38:13.640Z,9.40
2023-04-16T04:39:12.103Z,9.35
2023-04-16T04:40:12.202Z,9.31
2023-04-16T04:41:12.130Z,9.30
2023-04-16T04:42:12.111Z,9.30
2023-04-16T04:43:12.109Z,9.34
2023-04-16T04:44:12.088Z,9.34
2023-04-16T04:45:12.121Z,9.24
2023-04-16T04:46:12.178Z,9.26
2023-04-16T04:47:12.060Z,9.30
2023-04-16T04:48:12.081Z,9.26
2023-04-16T04:49:12.174Z,9.26
2023-04-16T04:50:12.072Z,9.23
2023-04-16T04:51:12.042Z,9.24
2023-04-16T04:52:12.096Z,9.27
2023-04-16T04:53:12.066Z,9.24
2023-04-16T04:54:12.021Z,9.27
2023-04-16T04:55:12.022Z,9.26
2023-04-16T04:56:13.096Z,9.27
2023-04-16T04:57:12.008Z,9.24
2023-04-16T04:58:12.050Z,9.23
2023-04-16T04:59:12.045Z,9.32
2023-04-16T05:00:11.990Z,9.30
2023-04-16T05:01:11.994Z,9.30
2023-04-16T05:02:11.981Z,9.19
2023-04-16T05:03:12.063Z,9.24
2023-04-16T05:04:12.093Z,9.26
2023-04-16T05:05:11.980Z,9.23
2023-04-16T05:06:11.938Z,9.30
2023-04-16T05:07:11.974Z,9.24
2023-04-16T05:08:11.927Z,9.23
2023-04-16T05:09:12.073Z,9.31
2023-04-16T05:10:11.945Z,9.30
2023-04-16T05:11:11.902Z,9.31
2023-04-16T05:12:11.916Z,9.31
2023-04-16T05:13:11.904Z,9.20
2023-04-16T05:14:11.879Z,9.20
2023-04-16T05:15:11.881Z,9.35
2023-04-16T05:16:12.209Z,9.34
2023-04-16T05:17:11.883Z,9.31
2023-04-16T05:18:11.884Z,9.32
2023-04-16T05:19:12.025Z,9.26
2023-04-16T05:20:11.839Z,9.23
2023-04-16T05:21:11.841Z,9.30
2023-04-16T05:22:11.895Z,9.23
2023-04-16T05:23:11.849Z,9.19
2023-04-16T05:24:13.062Z,9.24
2023-04-16T05:25:11.851Z,9.23
2023-04-16T05:26:11.808Z,9.30
2023-04-16T05:27:11.829Z,9.31
2023-04-16T05:28:22.495Z,9.27
2023-04-16T05:29:11.893Z,9.30
2023-04-16T05:30:11.786Z,9.30
2023-04-16T05:31:11.781Z,9.31
2023-04-16T05:32:11.761Z,9.34
2023-04-16T05:33:11.762Z,9.34
2023-04-16T05:34:11.798Z,9.35
2023-04-16T05:35:11.753Z,9.31
2023-04-16T05:36:11.720Z,9.34
2023-04-16T05:37:11.721Z,9.40
2023-04-16T05:38:11.731Z,9.35
2023-04-16T05:39:11.861Z,9.34
2023-04-16T05:40:11.733Z,9.44
2023-04-16T05:41:11.832Z,9.41
2023-04-16T05:42:11.687Z,9.44
2023-04-16T05:43:11.674Z,9.38
2023-04-16T05:44:11.674Z,9.32
2023-04-16T05:45:11.669Z,9.40
2023-04-16T05:46:11.750Z,9.41
2023-04-16T05:47:11.636Z,9.35
2023-04-16T05:48:11.654Z,9.53
2023-04-16T05:49:12.010Z,9.45
2023-04-16T05:50:11.650Z,9.50
2023-04-16T05:51:11.650Z,9.42
2023-04-16T05:52:11.646Z,9.53
2023-04-16T05:53:27.859Z,9.56
2023-04-16T05:54:11.592Z,9.56
2023-04-16T05:55:11.598Z,9.50
2023-04-16T05:56:11.640Z,9.59
2023-04-16T05:57:11.614Z,9.58
2023-04-16T05:58:11.662Z,9.62
2023-04-16T05:59:11.806Z,9.56
2023-04-16T06:00:11.545Z,9.56
2023-04-16T06:01:11.562Z,9.71
2023-04-16T06:02:11.597Z,9.62
2023-04-16T06:03:11.663Z,9.58
2023-04-16T06:04:11.643Z,9.59
2023-04-16T06:05:11.529Z,9.60
2023-04-16T06:06:11.509Z,9.56
2023-04-16T06:07:11.500Z,9.62
2023-04-16T06:08:11.525Z,9.70
2023-04-16T06:09:11.748Z,9.71
2023-04-16T06:10:11.534Z,9.75
2023-04-16T06:11:11.491Z,9.73
2023-04-16T06:12:11.483Z,9.75
2023-04-16T06:13:11.741Z,9.65
2023-04-16T06:14:11.780Z,9.68
2023-04-16T06:15:11.441Z,9.68
2023-04-16T06:16:11.898Z,9.80
2023-04-16T06:17:11.447Z,9.74
2023-04-16T06:18:11.452Z,9.80
2023-04-16T06:19:11.593Z,9.81
2023-04-16T06:20:11.409Z,9.75
2023-04-16T06:21:11.405Z,9.78
2023-04-16T06:22:12.427Z,9.93
2023-04-16T06:23:11.439Z,9.91
2023-04-16T06:24:12.045Z,9.88
2023-04-16T06:25:11.406Z,9.98
2023-04-16T06:26:11.453Z,9.78
2023-04-16T06:27:11.368Z,9.81
2023-04-16T06:28:11.416Z,9.75
2023-04-16T06:29:11.582Z,9.81
2023-04-16T06:30:11.393Z,9.81
2023-04-16T06:31:11.495Z,9.70
2023-04-16T06:32:11.926Z,9.75
2023-04-16T06:33:11.424Z,9.74
2023-04-16T06:34:11.374Z,9.73
2023-04-16T06:35:11.322Z,9.77
2023-04-16T06:36:11.354Z,9.88
2023-04-16T06:37:11.436Z,9.89
2023-04-16T06:38:11.390Z,9.92
2023-04-16T06:39:11.547Z,10.01
2023-04-16T06:40:11.369Z,10.04
2023-04-16T06:41:11.274Z,10.02
2023-04-16T06:42:11.275Z,10.13
2023-04-16T06:43:11.244Z,10.07
2023-04-16T06:44:12.529Z,10.11
2023-04-16T06:45:11.233Z,10.17
2023-04-16T06:46:11.293Z,10.24
2023-04-16T06:47:11.415Z,10.20
2023-04-16T06:48:11.267Z,10.24
2023-04-16T06:49:11.558Z,10.25
2023-04-16T06:50:11.244Z,10.18
2023-04-16T06:51:11.217Z,10.25
2023-04-16T06:52:11.310Z,10.31
2023-04-16T06:53:11.182Z,10.43
2023-04-16T06:54:11.290Z,10.36
2023-04-16T06:55:11.236Z,10.51
2023-04-16T06:56:11.167Z,10.52
2023-04-16T06:57:11.448Z,10.29
2023-04-16T06:58:11.475Z,10.22
2023-04-16T06:59:11.791Z,10.10
2023-04-16T07:00:11.663Z,10.31
2023-04-16T07:01:11.647Z,10.36
2023-04-16T07:02:11.636Z,10.47
2023-04-16T07:03:11.465Z,10.44
2023-04-16T07:04:11.839Z,10.52
2023-04-16T07:05:11.380Z,10.60
2023-04-16T07:06:11.374Z,10.44
2023-04-16T07:07:11.860Z,10.51
2023-04-16T07:08:11.601Z,10.51
2023-04-16T07:09:11.695Z,10.46
2023-04-16T07:10:11.473Z,10.39
2023-04-16T07:11:11.123Z,10.42
2023-04-16T07:12:11.191Z,10.39
2023-04-16T07:13:11.347Z,10.63
2023-04-16T07:14:11.004Z,10.39
2023-04-16T07:15:11.464Z,10.38
2023-04-16T07:16:12.239Z,10.69
2023-04-16T07:17:11.086Z,10.76
2023-04-16T07:18:11.209Z,10.75
2023-04-16T07:19:11.516Z,10.80
2023-04-16T07:20:11.676Z,10.88
2023-04-16T07:21:11.282Z,10.70
2023-04-16T07:22:11.886Z,10.70
2023-04-16T07:23:11.654Z,10.83
2023-04-16T07:24:11.564Z,10.69
2023-04-16T07:25:11.798Z,10.75
2023-04-16T07:26:11.655Z,10.84
2023-04-16T07:27:10.981Z,10.68
2023-04-16T07:28:12.163Z,10.63
2023-04-16T07:29:11.294Z,10.69
2023-04-16T07:30:11.704Z,10.72
2023-04-16T07:31:11.653Z,10.66
2023-04-16T07:32:11.992Z,10.83
2023-04-16T07:33:11.495Z,10.94
2023-04-16T07:34:12.222Z,10.91
2023-04-16T07:35:11.464Z,10.98
2023-04-16T07:36:11.278Z,11.02
2023-04-16T07:37:11.192Z,10.94
2023-04-16T07:38:11.571Z,10.87
2023-04-16T07:39:11.542Z,10.84
2023-04-16T07:40:31.677Z,10.84
2023-04-16T07:41:11.325Z,10.90
2023-04-16T07:42:11.697Z,10.87
2023-04-16T07:43:11.297Z,10.78
2023-04-16T07:44:11.326Z,10.93
2023-04-16T07:45:11.544Z,10.78
2023-04-16T07:46:11.917Z,10.87
2023-04-16T07:47:11.493Z,10.81
2023-04-16T07:48:11.657Z,10.84
2023-04-16T07:49:11.782Z,10.94
2023-04-16T07:50:11.569Z,10.90
2023-04-16T07:51:11.293Z,10.91
2023-04-16T07:52:11.766Z,10.98
2023-04-16T07:53:11.352Z,10.98
2023-04-16T07:54:11.212Z,11.08
2023-04-16T07:55:11.223Z,11.13
2023-04-16T07:56:11.095Z,11.05
2023-04-16T07:57:11.460Z,10.95
2023-04-16T07:58:11.983Z,10.93
2023-04-16T07:59:22.167Z,10.87
2023-04-16T08:00:12.294Z,10.88
2023-04-16T08:01:11.471Z,10.95
2023-04-16T08:02:11.379Z,10.88
2023-04-16T08:03:11.216Z,11.03
2023-04-16T08:04:14.177Z,11.12
2023-04-16T08:05:11.227Z,11.08
2023-04-16T08:06:11.273Z,11.16
2023-04-16T08:07:10.828Z,11.09
2023-04-16T08:08:11.051Z,11.05
2023-04-16T08:09:11.070Z,11.06
2023-04-16T08:10:11.412Z,11.28
2023-04-16T08:11:11.352Z,11.38
2023-04-16T08:12:11.284Z,11.56
2023-04-16T08:13:10.859Z,11.26
2023-04-16T08:14:11.150Z,11.38
2023-04-16T08:15:11.400Z,11.21
2023-04-16T08:16:11.909Z,11.42
2023-04-16T08:17:11.257Z,11.46
2023-04-16T08:18:11.059Z,11.66
2023-04-16T08:19:11.348Z,11.72
2023-04-16T08:20:14.404Z,11.81
2023-04-16T08:21:11.438Z,11.87
2023-04-16T08:22:12.382Z,11.70
2023-04-16T08:23:11.500Z,11.78
2023-04-16T08:24:11.465Z,11.87
2023-04-16T08:25:11.162Z,11.93
2023-04-16T08:26:11.376Z,11.87
2023-04-16T08:27:18.441Z,11.90
2023-04-16T08:28:12.884Z,11.79
2023-04-16T08:29:11.521Z,11.72
2023-04-16T08:30:11.010Z,11.85
2023-04-16T08:31:11.345Z,11.81
2023-04-16T08:32:11.259Z,11.82
2023-04-16T08:33:11.451Z,11.79
2023-04-16T08:34:11.776Z,11.79
2023-04-16T08:35:11.232Z,11.81
2023-04-16T08:36:11.085Z,11.90
2023-04-16T08:37:11.165Z,12.00
2023-04-16T08:38:11.244Z,12.03
2023-04-16T08:39:11.390Z,11.94
2023-04-16T08:40:11.219Z,11.85
2023-04-16T08:41:10.873Z,11.82
2023-04-16T08:42:18.180Z,11.64
2023-04-16T08:43:11.165Z,11.77
2023-04-16T08:44:11.222Z,11.77
2023-04-16T08:45:11.052Z,11.87
2023-04-16T08:46:11.502Z,11.64
2023-04-16T08:47:10.986Z,11.59
2023-04-16T08:48:11.056Z,11.84
2023-04-16T08:49:11.440Z,11.94
2023-04-16T08:50:11.312Z,11.81
2023-04-16T08:51:11.236Z,11.67
2023-04-16T08:52:11.723Z,11.75
2023-04-16T08:53:11.249Z,11.75
2023-04-16T08:54:11.216Z,11.87
2023-04-16T08:55:12.155Z,11.78
2023-04-16T08:56:10.892Z,11.87
2023-04-16T08:57:10.887Z,11.82
2023-04-16T08:58:11.373Z,11.87
2023-04-16T08:59:11.203Z,12.00
2023-04-16T09:00:10.853Z,12.18
2023-04-16T09:01:11.139Z,12.26
2023-04-16T09:02:11.198Z,12.23
2023-04-16T09:03:12.101Z,12.29
2023-04-16T09:04:11.833Z,12.19
2023-04-16T09:05:10.762Z,12.25
2023-04-16T09:06:10.673Z,12.23
2023-04-16T09:07:10.656Z,12.11
2023-04-16T09:08:10.753Z,11.96
2023-04-16T09:09:10.909Z,12.18
2023-04-16T09:10:11.010Z,12.33
2023-04-16T09:11:10.647Z,12.19
2023-04-16T09:12:11.089Z,12.00
2023-04-16T09:13:10.647Z,12.05
2023-04-16T09:14:10.897Z,11.97
2023-04-16T09:15:10.867Z,11.97
2023-04-16T09:16:11.235Z,11.79
2023-04-16T09:17:10.669Z,11.81
2023-04-16T09:18:10.906Z,11.75
2023-04-16T09:19:10.952Z,11.96
2023-04-16T09:20:10.909Z,11.84
2023-04-16T09:21:10.925Z,12.05
2023-04-16T09:22:11.318Z,12.34
2023-04-16T09:23:10.941Z,12.36
2023-04-16T09:24:10.909Z,12.31
2023-04-16T09:25:10.946Z,12.55
2023-04-16T09:26:10.753Z,12.69
2023-04-16T09:27:10.969Z,12.71
2023-04-16T09:28:11.512Z,12.36
2023-04-16T09:29:10.877Z,12.49
2023-04-16T09:30:10.801Z,12.59
2023-04-16T09:31:10.949Z,12.56
2023-04-16T09:32:10.920Z,12.52
2023-04-16T09:33:10.927Z,12.66
2023-04-16T09:34:11.284Z,12.71
2023-04-16T09:35:10.902Z,12.77
2023-04-16T09:36:10.924Z,12.80
2023-04-16T09:37:10.764Z,12.99
2023-04-16T09:38:11.882Z,12.48
2023-04-16T09:39:10.857Z,12.04
2023-04-16T09:40:12.185Z,11.90
2023-04-16T09:41:10.812Z,11.97
2023-04-16T09:42:10.728Z,12.16
2023-04-16T09:43:10.864Z,12.33
2023-04-16T09:44:10.782Z,12.51
2023-04-16T09:45:10.754Z,12.62
2023-04-16T09:46:13.295Z,12.58
2023-04-16T09:47:10.869Z,12.54
2023-04-16T09:48:10.632Z,12.58
2023-04-16T09:49:11.042Z,12.51
2023-04-16T09:50:12.447Z,12.21
2023-04-16T09:51:10.778Z,12.26
2023-04-16T09:52:11.261Z,12.37
2023-04-16T09:53:10.576Z,12.36
2023-04-16T09:54:10.745Z,12.36
2023-04-16T09:55:10.781Z,12.18
2023-04-16T09:56:10.746Z,11.85
2023-04-16T09:57:10.653Z,11.93
2023-04-16T09:58:11.092Z,11.85
2023-04-16T09:59:11.002Z,11.87
2023-04-16T10:00:10.703Z,12.01
2023-04-16T10:01:10.738Z,11.87
2023-04-16T10:02:15.758Z,11.70
2023-04-16T10:03:12.214Z,11.81
2023-04-16T10:04:10.740Z,12.07
2023-04-16T10:05:10.558Z,12.00
2023-04-16T10:06:10.730Z,11.82
2023-04-16T10:07:10.761Z,11.87
2023-04-16T10:08:10.705Z,11.97
2023-04-16T10:09:11.461Z,12.23
2023-04-16T10:10:10.576Z,12.29
2023-04-16T10:11:10.690Z,12.41
2023-04-16T10:12:10.660Z,12.07
2023-04-16T10:13:10.555Z,12.04
2023-04-16T10:14:10.515Z,12.04
2023-04-16T10:15:11.075Z,12.19
2023-04-16T10:16:10.584Z,12.00
2023-04-16T10:17:10.711Z,12.07
2023-04-16T10:18:10.675Z,11.90
2023-04-16T10:19:10.900Z,12.33
2023-04-16T10:20:10.568Z,12.40
2023-04-16T10:21:11.003Z,12.54
2023-04-16T10:22:10.604Z,12.15
2023-04-16T10:23:10.589Z,11.98
2023-04-16T10:24:10.407Z,11.93
2023-04-16T10:25:10.567Z,12.00
2023-04-16T10:26:10.596Z,11.93
2023-04-16T10:27:10.914Z,12.07
2023-04-16T10:28:10.514Z,12.11
2023-04-16T10:29:10.817Z,11.97
2023-04-16T10:30:14.684Z,11.78
2023-04-16T10:31:10.615Z,11.84
2023-04-16T10:32:10.506Z,11.88
2023-04-16T10:33:11.276Z,12.11
2023-04-16T10:34:10.493Z,12.04
2023-04-16T10:35:10.528Z,12.03
2023-04-16T10:36:10.342Z,12.21
2023-04-16T10:37:10.480Z,11.82
2023-04-16T10:38:11.459Z,11.48
2023-04-16T10:39:11.160Z,11.53
2023-04-16T10:40:10.470Z,11.64
2023-04-16T10:41:11.346Z,11.75
2023-04-16T10:42:10.307Z,11.66
2023-04-16T10:43:10.416Z,11.72
2023-04-16T10:44:10.434Z,11.88
2023-04-16T10:45:10.717Z,11.94
2023-04-16T10:46:10.440Z,11.84
2023-04-16T10:47:10.450Z,12.18
2023-04-16T10:48:10.445Z,11.88
2023-04-16T10:49:11.588Z,11.94
2023-04-16T10:50:10.394Z,11.87
2023-04-16T10:51:10.799Z,11.93
2023-04-16T10:52:10.285Z,11.98
2023-04-16T10:53:10.364Z,12.19
2023-04-16T10:54:10.342Z,11.93
2023-04-16T10:55:10.393Z,11.79
2023-04-16T10:56:10.224Z,11.72
2023-04-16T10:57:10.860Z,11.74
2023-04-16T10:58:10.271Z,11.79
2023-04-16T10:59:11.572Z,11.87
2023-04-16T11:00:10.235Z,11.87
2023-04-16T11:01:10.482Z,12.19
2023-04-16T11:02:10.530Z,11.88
2023-04-16T11:03:10.945Z,12.12
2023-04-16T11:04:10.383Z,12.22
2023-04-16T11:05:10.202Z,12.41
2023-04-16T11:06:10.235Z,12.37
2023-04-16T11:07:10.272Z,12.31
2023-04-16T11:08:10.163Z,12.59
2023-04-16T11:09:10.975Z,12.67
2023-04-16T11:10:10.106Z,12.46
2023-04-16T11:11:10.118Z,12.51
2023-04-16T11:12:09.956Z,12.94
2023-04-16T11:13:10.148Z,13.13
2023-04-16T11:14:10.272Z,12.95
2023-04-16T11:15:10.932Z,12.34
2023-04-16T11:16:10.046Z,12.36
2023-04-16T11:17:10.092Z,12.62
2023-04-16T11:18:10.150Z,12.67
2023-04-16T11:19:10.369Z,12.61
2023-04-16T11:20:17.425Z,12.74
2023-04-16T11:21:11.703Z,12.40
2023-04-16T11:22:10.078Z,12.21
2023-04-16T11:23:09.981Z,12.25
2023-04-16T11:24:10.123Z,12.23
2023-04-16T11:25:11.069Z,11.94
2023-04-16T11:26:10.155Z,12.08
2023-04-16T11:27:12.601Z,12.36
2023-04-16T11:28:10.013Z,12.46
2023-04-16T11:29:11.216Z,12.37
2023-04-16T11:30:10.112Z,12.69
2023-04-16T11:31:11.088Z,12.87
2023-04-16T11:32:10.028Z,13.31
2023-04-16T11:33:11.564Z,13.87
2023-04-16T11:34:10.048Z,13.86
2023-04-16T11:35:10.017Z,14.49
2023-04-16T11:36:10.021Z,14.30
2023-04-16T11:37:10.016Z,14.30
2023-04-16T11:38:09.897Z,14.36
2023-04-16T11:39:10.719Z,14.85
2023-04-16T11:40:10.033Z,16.11
2023-04-16T11:41:10.033Z,15.55
2023-04-16T11:42:10.031Z,15.98
2023-04-16T11:43:09.928Z,14.54
2023-04-16T11:44:09.993Z,14.39
2023-04-16T11:45:10.359Z,14.82
2023-04-16T11:46:24.061Z,14.48
2023-04-16T11:47:10.854Z,14.39
2023-04-16T11:48:11.168Z,14.38
2023-04-16T11:49:10.049Z,14.21
2023-04-16T11:50:09.906Z,14.60
2023-04-16T11:51:10.418Z,14.82
2023-04-16T11:52:09.865Z,15.55
2023-04-16T11:53:09.889Z,16.37
2023-04-16T11:54:11.817Z,16.41
2023-04-16T11:55:09.906Z,16.95
2023-04-16T11:56:09.902Z,16.73
2023-04-16T11:57:12.381Z,15.23
2023-04-16T11:58:09.893Z,15.74
2023-04-16T11:59:10.224Z,15.98
2023-04-16T12:00:10.667Z,16.59
2023-04-16T12:01:09.632Z,16.17
2023-04-16T12:02:09.945Z,15.84
2023-04-16T12:03:10.508Z,15.35
2023-04-16T12:04:10.248Z,14.85
2023-04-16T12:05:09.903Z,15.28
2023-04-16T12:06:09.834Z,16.45
2023-04-16T12:07:09.744Z,16.54
2023-04-16T12:08:09.783Z,16.51
2023-04-16T12:09:10.374Z,16.06
2023-04-16T12:10:09.810Z,15.44
2023-04-16T12:11:09.817Z,14.85
2023-04-16T12:12:09.751Z,14.21
2023-04-16T12:13:09.773Z,13.71
2023-04-16T12:14:09.818Z,14.01
2023-04-16T12:15:10.199Z,14.52
2023-04-16T12:16:09.889Z,14.98
2023-04-16T12:17:11.245Z,15.25
2023-04-16T12:18:09.826Z,15.25
2023-04-16T12:19:09.986Z,15.78
2023-04-16T12:20:09.749Z,15.56
2023-04-16T12:21:10.172Z,15.67
2023-04-16T12:22:09.713Z,15.12
2023-04-16T12:23:09.615Z,14.38
2023-04-16T12:24:09.576Z,15.18
2023-04-16T12:25:09.703Z,16.17
2023-04-16T12:26:09.748Z,16.34
2023-04-16T12:27:10.150Z,16.78
2023-04-16T12:28:09.630Z,15.52
2023-04-16T12:29:09.583Z,15.34
2023-04-16T12:30:09.411Z,15.43
2023-04-16T12:31:09.674Z,15.64
2023-04-16T12:32:09.626Z,14.91
2023-04-16T12:33:10.109Z,15.01
2023-04-16T12:34:09.425Z,15.44
2023-04-16T12:35:09.691Z,15.40
2023-04-16T12:36:09.611Z,15.66
2023-04-16T12:37:09.637Z,16.07
2023-04-16T12:38:09.567Z,16.42
2023-04-16T12:39:10.736Z,16.32
2023-04-16T12:40:10.334Z,16.25
2023-04-16T12:41:10.374Z,15.05
2023-04-16T12:42:09.598Z,15.84
2023-04-16T12:43:09.535Z,16.04
2023-04-16T12:44:09.521Z,16.40
2023-04-16T12:45:11.010Z,16.26
2023-04-16T12:46:09.612Z,16.42
2023-04-16T12:47:09.556Z,15.40
2023-04-16T12:48:09.427Z,15.25
2023-04-16T12:49:09.782Z,14.64
2023-04-16T12:50:09.527Z,14.42
2023-04-16T12:51:10.914Z,14.30
2023-04-16T12:52:09.531Z,13.80
2023-04-16T12:53:09.274Z,13.69
2023-04-16T12:54:09.485Z,13.81
2023-04-16T12:55:09.358Z,13.98
2023-04-16T12:56:09.457Z,13.93
2023-04-16T12:57:09.866Z,13.69
2023-04-16T12:58:11.109Z,13.66
2023-04-16T12:59:10.744Z,13.66
2023-04-16T13:00:09.465Z,13.59
2023-04-16T13:01:09.385Z,13.61
2023-04-16T13:02:09.398Z,13.44
2023-04-16T13:03:10.064Z,13.47
2023-04-16T13:04:09.425Z,13.50
2023-04-16T13:05:09.442Z,13.50